Terminal Aerodrome Forecast
Issued by NWS

Home | Current Version | Previous Version | Text Only | Print | Product List | Glossary On
Versions: 1 2 3 4 5 6 7 8 9 10 11 12 13 14 15 16 17 18 19 20 21 22
000
FTUS44 KHGX 241012 AAC
TAFSGR
TAF AMD
KSGR 241012Z 2410/2506 16007KT P6SM OVC018
     FM241600 18012KT P6SM FEW040 SCT250
     FM250200 18005KT P6SM BKN040=

USA.gov is the U.S. government's official web portal to all federal, state and local government web resources and services.